sensor_id;sensor_type;location;lat;lon;timestamp;temperature;humidity
39189;DHT22;24915;50.858;4.376;2023-07-29T00:01:42;19.80;99.90
39189;DHT22;24915;50.858;4.376;2023-07-29T00:04:08;19.80;99.90
39189;DHT22;24915;50.858;4.376;2023-07-29T00:06:35;19.70;99.90
39189;DHT22;24915;50.858;4.376;2023-07-29T00:09:01;19.70;99.90
39189;DHT22;24915;50.858;4.376;2023-07-29T00:11:27;19.60;99.90
39189;DHT22;24915;50.858;4.376;2023-07-29T00:13:53;19.60;99.90
39189;DHT22;24915;50.858;4.376;2023-07-29T00:16:19;19.50;99.90
39189;DHT22;24915;50.858;4.376;2023-07-29T00:18:48;19.50;99.90
39189;DHT22;24915;50.858;4.376;2023-07-29T00:21:14;19.40;99.90
39189;DHT22;24915;50.858;4.376;2023-07-29T00:23:39;19.40;99.90
39189;DHT22;24915;50.858;4.376;2023-07-29T00:26:05;19.30;99.90
39189;DHT22;24915;50.858;4.376;2023-07-29T00:28:31;19.30;99.90
39189;DHT22;24915;50.858;4.376;2023-07-29T00:30:57;19.20;99.90
39189;DHT22;24915;50.858;4.376;2023-07-29T00:33:22;19.20;99.90
39189;DHT22;24915;50.858;4.376;2023-07-29T00:35:48;19.20;99.90
39189;DHT22;24915;50.858;4.376;2023-07-29T00:38:14;19.10;99.90
39189;DHT22;24915;50.858;4.376;2023-07-29T00:40:39;19.10;99.90
39189;DHT22;24915;50.858;4.376;2023-07-29T00:43:05;19.10;99.90
39189;DHT22;24915;50.858;4.376;2023-07-29T00:45:32;19.10;99.90
39189;DHT22;24915;50.858;4.376;2023-07-29T00:47:58;19.10;99.90
39189;DHT22;24915;50.858;4.376;2023-07-29T00:50:24;19.00;99.90
39189;DHT22;24915;50.858;4.376;2023-07-29T00:52:51;19.00;99.90
39189;DHT22;24915;50.858;4.376;2023-07-29T00:55:17;19.00;99.90
39189;DHT22;24915;50.858;4.376;2023-07-29T00:57:43;18.90;99.90
39189;DHT22;24915;50.858;4.376;2023-07-29T01:00:14;18.90;99.90
39189;DHT22;24915;50.858;4.376;2023-07-29T01:02:39;18.90;99.90
39189;DHT22;24915;50.858;4.376;2023-07-29T01:05:06;18.90;99.90
39189;DHT22;24915;50.858;4.376;2023-07-29T01:07:37;18.90;99.90
39189;DHT22;24915;50.858;4.376;2023-07-29T01:10:07;18.80;99.90
39189;DHT22;24915;50.858;4.376;2023-07-29T01:12:54;18.80;99.90
39189;DHT22;24915;50.858;4.376;2023-07-29T01:15:30;18.80;99.90
39189;DHT22;24915;50.858;4.376;2023-07-29T01:18:05;18.70;99.90
39189;DHT22;24915;50.858;4.376;2023-07-29T01:20:34;18.70;99.90
39189;DHT22;24915;50.858;4.376;2023-07-29T01:23:00;18.70;99.90
39189;DHT22;24915;50.858;4.376;2023-07-29T01:25:26;18.70;99.90
39189;DHT22;24915;50.858;4.376;2023-07-29T01:27:52;18.70;99.90
39189;DHT22;24915;50.858;4.376;2023-07-29T01:30:22;18.70;99.90
39189;DHT22;24915;50.858;4.376;2023-07-29T01:35:40;18.60;99.90
39189;DHT22;24915;50.858;4.376;2023-07-29T01:38:17;18.60;99.90
39189;DHT22;24915;50.858;4.376;2023-07-29T01:40:44;18.50;99.90
39189;DHT22;24915;50.858;4.376;2023-07-29T01:43:11;18.50;99.90
39189;DHT22;24915;50.858;4.376;2023-07-29T01:45:37;18.40;99.90
39189;DHT22;24915;50.858;4.376;2023-07-29T01:48:05;18.40;99.90
39189;DHT22;24915;50.858;4.376;2023-07-29T01:50:31;18.40;99.90
39189;DHT22;24915;50.858;4.376;2023-07-29T01:52:58;18.30;99.90
39189;DHT22;24915;50.858;4.376;2023-07-29T01:55:24;18.30;99.90
39189;DHT22;24915;50.858;4.376;2023-07-29T01:57:50;18.20;99.90
39189;DHT22;24915;50.858;4.376;2023-07-29T02:00:17;18.20;99.90
39189;DHT22;24915;50.858;4.376;2023-07-29T02:02:43;18.20;99.90
39189;DHT22;24915;50.858;4.376;2023-07-29T02:05:08;18.20;99.90
39189;DHT22;24915;50.858;4.376;2023-07-29T02:07:34;18.30;99.90
39189;DHT22;24915;50.858;4.376;2023-07-29T02:10:00;18.20;99.90
39189;DHT22;24915;50.858;4.376;2023-07-29T02:12:25;18.20;99.90
39189;DHT22;24915;50.858;4.376;2023-07-29T02:14:51;18.20;99.90
39189;DHT22;24915;50.858;4.376;2023-07-29T02:17:17;18.10;99.90
39189;DHT22;24915;50.858;4.376;2023-07-29T02:19:42;18.10;99.90
39189;DHT22;24915;50.858;4.376;2023-07-29T02:22:09;18.10;99.90
39189;DHT22;24915;50.858;4.376;2023-07-29T02:24:35;18.10;99.90
39189;DHT22;24915;50.858;4.376;2023-07-29T02:27:01;18.10;99.90
39189;DHT22;24915;50.858;4.376;2023-07-29T02:29:26;18.00;99.90
39189;DHT22;24915;50.858;4.376;2023-07-29T02:31:52;18.00;99.90
39189;DHT22;24915;50.858;4.376;2023-07-29T02:34:18;18.00;99.90
39189;DHT22;24915;50.858;4.376;2023-07-29T02:36:43;18.00;99.90
39189;DHT22;24915;50.858;4.376;2023-07-29T02:39:09;18.00;99.90
39189;DHT22;24915;50.858;4.376;2023-07-29T02:41:35;18.00;99.90
39189;DHT22;24915;50.858;4.376;2023-07-29T02:44:02;17.90;99.90
39189;DHT22;24915;50.858;4.376;2023-07-29T02:46:28;17.90;99.90
39189;DHT22;24915;50.858;4.376;2023-07-29T02:48:53;17.90;99.90
39189;DHT22;24915;50.858;4.376;2023-07-29T02:51:19;17.90;99.90
39189;DHT22;24915;50.858;4.376;2023-07-29T02:53:45;17.90;99.90
39189;DHT22;24915;50.858;4.376;2023-07-29T02:56:10;17.90;99.90
39189;DHT22;24915;50.858;4.376;2023-07-29T02:58:37;17.90;99.90
39189;DHT22;24915;50.858;4.376;2023-07-29T03:01:06;18.00;99.90
39189;DHT22;24915;50.858;4.376;2023-07-29T03:03:32;17.90;99.90
39189;DHT22;24915;50.858;4.376;2023-07-29T03:06:03;17.90;99.90
39189;DHT22;24915;50.858;4.376;2023-07-29T03:08:28;17.90;99.90
39189;DHT22;24915;50.858;4.376;2023-07-29T03:10:55;17.90;99.90
39189;DHT22;24915;50.858;4.376;2023-07-29T03:13:21;17.90;99.90
39189;DHT22;24915;50.858;4.376;2023-07-29T03:15:46;17.90;99.90
39189;DHT22;24915;50.858;4.376;2023-07-29T03:18:12;17.80;99.90
39189;DHT22;24915;50.858;4.376;2023-07-29T03:20:37;17.80;99.90
39189;DHT22;24915;50.858;4.376;2023-07-29T03:23:03;17.80;99.90
39189;DHT22;24915;50.858;4.376;2023-07-29T03:25:29;17.80;99.90
39189;DHT22;24915;50.858;4.376;2023-07-29T03:27:55;17.80;99.90
39189;DHT22;24915;50.858;4.376;2023-07-29T03:30:21;17.70;99.90
39189;DHT22;24915;50.858;4.376;2023-07-29T03:32:49;17.70;99.90
39189;DHT22;24915;50.858;4.376;2023-07-29T03:35:15;17.70;99.90
39189;DHT22;24915;50.858;4.376;2023-07-29T03:37:41;17.70;99.90
39189;DHT22;24915;50.858;4.376;2023-07-29T03:40:07;17.70;99.90
39189;DHT22;24915;50.858;4.376;2023-07-29T03:42:35;17.70;99.90
39189;DHT22;24915;50.858;4.376;2023-07-29T03:45:00;17.70;99.90
39189;DHT22;24915;50.858;4.376;2023-07-29T03:47:26;17.70;99.90
39189;DHT22;24915;50.858;4.376;2023-07-29T03:49:53;17.70;99.90
39189;DHT22;24915;50.858;4.376;2023-07-29T03:52:18;17.70;99.90
39189;DHT22;24915;50.858;4.376;2023-07-29T03:54:44;17.60;99.90
39189;DHT22;24915;50.858;4.376;2023-07-29T03:57:09;17.60;99.90
39189;DHT22;24915;50.858;4.376;2023-07-29T03:59:35;17.60;99.90
39189;DHT22;24915;50.858;4.376;2023-07-29T04:02:01;17.60;99.90
39189;DHT22;24915;50.858;4.376;2023-07-29T04:04:26;17.60;99.90
39189;DHT22;24915;50.858;4.376;2023-07-29T04:06:52;17.60;99.90
39189;DHT22;24915;50.858;4.376;2023-07-29T04:09:18;17.60;99.90
39189;DHT22;24915;50.858;4.376;2023-07-29T04:11:43;17.60;99.90
39189;DHT22;24915;50.858;4.376;2023-07-29T04:14:09;17.60;99.90
39189;DHT22;24915;50.858;4.376;2023-07-29T04:16:34;17.60;99.90
39189;DHT22;24915;50.858;4.376;2023-07-29T04:19:00;17.50;99.90
39189;DHT22;24915;50.858;4.376;2023-07-29T04:21:26;17.50;99.90
39189;DHT22;24915;50.858;4.376;2023-07-29T04:23:52;17.50;99.90
39189;DHT22;24915;50.858;4.376;2023-07-29T04:26:17;17.50;99.90
39189;DHT22;24915;50.858;4.376;2023-07-29T04:28:43;17.50;99.90
39189;DHT22;24915;50.858;4.376;2023-07-29T04:31:09;17.50;99.90
39189;DHT22;24915;50.858;4.376;2023-07-29T04:33:34;17.50;99.90
39189;DHT22;24915;50.858;4.376;2023-07-29T04:36:00;17.50;99.90
39189;DHT22;24915;50.858;4.376;2023-07-29T04:38:31;17.50;99.90
39189;DHT22;24915;50.858;4.376;2023-07-29T04:41:00;17.60;99.90
39189;DHT22;24915;50.858;4.376;2023-07-29T04:43:31;17.60;99.90
39189;DHT22;24915;50.858;4.376;2023-07-29T04:45:56;17.60;99.90
39189;DHT22;24915;50.858;4.376;2023-07-29T04:48:22;17.60;99.90
39189;DHT22;24915;50.858;4.376;2023-07-29T04:50:48;17.60;99.90
39189;DHT22;24915;50.858;4.376;2023-07-29T04:53:14;17.60;99.90
39189;DHT22;24915;50.858;4.376;2023-07-29T04:55:41;17.60;99.90
39189;DHT22;24915;50.858;4.376;2023-07-29T04:58:08;17.60;99.90
39189;DHT22;24915;50.858;4.376;2023-07-29T05:00:33;17.70;99.90
39189;DHT22;24915;50.858;4.376;2023-07-29T05:02:59;17.70;99.90
39189;DHT22;24915;50.858;4.376;2023-07-29T05:05:25;17.70;99.90
39189;DHT22;24915;50.858;4.376;2023-07-29T05:07:50;17.70;99.90
39189;DHT22;24915;50.858;4.376;2023-07-29T05:10:16;17.70;99.90
39189;DHT22;24915;50.858;4.376;2023-07-29T05:12:42;17.70;99.90
39189;DHT22;24915;50.858;4.376;2023-07-29T05:15:08;17.70;99.90
39189;DHT22;24915;50.858;4.376;2023-07-29T05:17:34;17.80;99.90
39189;DHT22;24915;50.858;4.376;2023-07-29T05:19:59;17.80;99.90
39189;DHT22;24915;50.858;4.376;2023-07-29T05:22:25;17.80;99.90
39189;DHT22;24915;50.858;4.376;2023-07-29T05:24:51;17.80;99.90
39189;DHT22;24915;50.858;4.376;2023-07-29T05:27:16;17.90;99.90
39189;DHT22;24915;50.858;4.376;2023-07-29T05:29:42;17.90;99.90
39189;DHT22;24915;50.858;4.376;2023-07-29T05:32:07;17.90;99.90
39189;DHT22;24915;50.858;4.376;2023-07-29T05:34:33;17.90;99.90
39189;DHT22;24915;50.858;4.376;2023-07-29T05:36:58;17.90;99.90
39189;DHT22;24915;50.858;4.376;2023-07-29T05:39:24;17.90;99.90
39189;DHT22;24915;50.858;4.376;2023-07-29T05:41:50;17.90;99.90
39189;DHT22;24915;50.858;4.376;2023-07-29T05:44:16;18.00;99.90
39189;DHT22;24915;50.858;4.376;2023-07-29T05:46:41;18.10;99.90
39189;DHT22;24915;50.858;4.376;2023-07-29T05:49:07;18.20;99.90
39189;DHT22;24915;50.858;4.376;2023-07-29T05:51:33;18.40;99.90
39189;DHT22;24915;50.858;4.376;2023-07-29T05:53:58;18.50;99.90
39189;DHT22;24915;50.858;4.376;2023-07-29T05:56:24;18.60;99.90
39189;DHT22;24915;50.858;4.376;2023-07-29T05:58:50;18.70;99.90
39189;DHT22;24915;50.858;4.376;2023-07-29T06:01:15;18.70;99.90
39189;DHT22;24915;50.858;4.376;2023-07-29T06:03:41;18.80;99.90
39189;DHT22;24915;50.858;4.376;2023-07-29T06:06:07;18.80;99.90
39189;DHT22;24915;50.858;4.376;2023-07-29T06:08:33;18.70;99.90
39189;DHT22;24915;50.858;4.376;2023-07-29T06:11:00;18.80;99.90
39189;DHT22;24915;50.858;4.376;2023-07-29T06:13:25;18.80;99.90
39189;DHT22;24915;50.858;4.376;2023-07-29T06:15:51;19.00;99.90
39189;DHT22;24915;50.858;4.376;2023-07-29T06:18:17;19.10;99.90
39189;DHT22;24915;50.858;4.376;2023-07-29T06:20:42;19.40;99.90
39189;DHT22;24915;50.858;4.376;2023-07-29T06:23:08;19.60;99.90
39189;DHT22;24915;50.858;4.376;2023-07-29T06:25:34;19.70;99.90
39189;DHT22;24915;50.858;4.376;2023-07-29T06:28:00;19.70;99.90
39189;DHT22;24915;50.858;4.376;2023-07-29T06:30:25;19.90;99.90
39189;DHT22;24915;50.858;4.376;2023-07-29T06:32:51;20.00;99.90
39189;DHT22;24915;50.858;4.376;2023-07-29T06:35:17;20.00;99.90
39189;DHT22;24915;50.858;4.376;2023-07-29T06:37:42;20.00;99.90
39189;DHT22;24915;50.858;4.376;2023-07-29T06:40:08;20.10;99.90
39189;DHT22;24915;50.858;4.376;2023-07-29T06:42:34;20.00;99.90
39189;DHT22;24915;50.858;4.376;2023-07-29T06:45:00;20.00;99.90
39189;DHT22;24915;50.858;4.376;2023-07-29T06:47:25;20.00;99.90
39189;DHT22;24915;50.858;4.376;2023-07-29T06:49:53;20.10;99.90
39189;DHT22;24915;50.858;4.376;2023-07-29T06:52:19;20.00;99.90
39189;DHT22;24915;50.858;4.376;2023-07-29T06:54:45;20.00;99.90
39189;DHT22;24915;50.858;4.376;2023-07-29T06:57:10;20.00;99.90
39189;DHT22;24915;50.858;4.376;2023-07-29T06:59:36;19.90;99.90
39189;DHT22;24915;50.858;4.376;2023-07-29T07:02:01;19.80;99.90
39189;DHT22;24915;50.858;4.376;2023-07-29T07:04:27;19.80;99.90
39189;DHT22;24915;50.858;4.376;2023-07-29T07:06:53;19.70;99.90
39189;DHT22;24915;50.858;4.376;2023-07-29T07:09:19;19.60;99.90
39189;DHT22;24915;50.858;4.376;2023-07-29T07:11:45;19.60;99.90
39189;DHT22;24915;50.858;4.376;2023-07-29T07:14:10;19.60;99.90
39189;DHT22;24915;50.858;4.376;2023-07-29T07:16:36;19.60;99.90
39189;DHT22;24915;50.858;4.376;2023-07-29T07:19:02;19.60;99.90
39189;DHT22;24915;50.858;4.376;2023-07-29T07:21:28;19.60;99.90
39189;DHT22;24915;50.858;4.376;2023-07-29T07:23:54;19.50;99.90
39189;DHT22;24915;50.858;4.376;2023-07-29T07:26:19;19.50;99.90
39189;DHT22;24915;50.858;4.376;2023-07-29T07:28:46;19.50;99.90
39189;DHT22;24915;50.858;4.376;2023-07-29T07:31:11;19.40;99.90
39189;DHT22;24915;50.858;4.376;2023-07-29T07:33:37;19.50;99.90
39189;DHT22;24915;50.858;4.376;2023-07-29T07:36:03;19.40;99.90
39189;DHT22;24915;50.858;4.376;2023-07-29T07:38:28;19.40;99.90
39189;DHT22;24915;50.858;4.376;2023-07-29T07:40:55;19.40;99.90
39189;DHT22;24915;50.858;4.376;2023-07-29T07:43:21;19.50;99.90
39189;DHT22;24915;50.858;4.376;2023-07-29T07:45:47;19.50;99.90
39189;DHT22;24915;50.858;4.376;2023-07-29T07:48:13;19.60;99.90
39189;DHT22;24915;50.858;4.376;2023-07-29T07:50:39;19.70;99.90
39189;DHT22;24915;50.858;4.376;2023-07-29T07:53:05;19.70;99.90
39189;DHT22;24915;50.858;4.376;2023-07-29T07:55:31;19.80;99.90
39189;DHT22;24915;50.858;4.376;2023-07-29T07:57:56;19.90;99.90
39189;DHT22;24915;50.858;4.376;2023-07-29T08:00:22;19.90;99.90
39189;DHT22;24915;50.858;4.376;2023-07-29T08:02:47;20.00;99.90
39189;DHT22;24915;50.858;4.376;2023-07-29T08:05:13;20.10;99.90
39189;DHT22;24915;50.858;4.376;2023-07-29T08:07:39;20.20;99.90
39189;DHT22;24915;50.858;4.376;2023-07-29T08:10:05;20.30;99.90
39189;DHT22;24915;50.858;4.376;2023-07-29T08:12:31;20.40;99.90
39189;DHT22;24915;50.858;4.376;2023-07-29T08:14:57;20.50;99.90
39189;DHT22;24915;50.858;4.376;2023-07-29T08:17:22;20.70;99.90
39189;DHT22;24915;50.858;4.376;2023-07-29T08:19:48;20.90;99.90
39189;DHT22;24915;50.858;4.376;2023-07-29T08:22:14;21.00;99.90
39189;DHT22;24915;50.858;4.376;2023-07-29T08:24:39;21.10;99.90
39189;DHT22;24915;50.858;4.376;2023-07-29T08:27:05;21.10;99.90
39189;DHT22;24915;50.858;4.376;2023-07-29T08:29:31;21.10;99.90
39189;DHT22;24915;50.858;4.376;2023-07-29T08:31:56;21.10;99.90
39189;DHT22;24915;50.858;4.376;2023-07-29T08:34:22;21.10;99.90
39189;DHT22;24915;50.858;4.376;2023-07-29T08:36:48;21.10;99.90
39189;DHT22;24915;50.858;4.376;2023-07-29T08:39:14;21.30;99.90
39189;DHT22;24915;50.858;4.376;2023-07-29T08:41:51;21.40;99.90
39189;DHT22;24915;50.858;4.376;2023-07-29T08:44:23;21.40;99.90
39189;DHT22;24915;50.858;4.376;2023-07-29T08:46:50;21.50;99.90
39189;DHT22;24915;50.858;4.376;2023-07-29T08:49:18;21.60;99.90
39189;DHT22;24915;50.858;4.376;2023-07-29T08:51:47;21.70;99.90
39189;DHT22;24915;50.858;4.376;2023-07-29T08:54:16;21.80;99.90
39189;DHT22;24915;50.858;4.376;2023-07-29T08:56:42;21.80;99.90
39189;DHT22;24915;50.858;4.376;2023-07-29T08:59:09;21.90;99.90
39189;DHT22;24915;50.858;4.376;2023-07-29T09:01:37;21.90;99.90
39189;DHT22;24915;50.858;4.376;2023-07-29T09:04:03;22.30;99.90
39189;DHT22;24915;50.858;4.376;2023-07-29T09:06:30;22.50;99.90
39189;DHT22;24915;50.858;4.376;2023-07-29T09:08:56;22.70;99.90
39189;DHT22;24915;50.858;4.376;2023-07-29T09:11:22;22.90;99.90
39189;DHT22;24915;50.858;4.376;2023-07-29T09:13:48;23.20;99.90
39189;DHT22;24915;50.858;4.376;2023-07-29T09:16:14;23.30;99.90
39189;DHT22;24915;50.858;4.376;2023-07-29T09:18:40;23.30;99.90
39189;DHT22;24915;50.858;4.376;2023-07-29T09:21:06;23.10;99.90
39189;DHT22;24915;50.858;4.376;2023-07-29T09:23:41;23.00;99.90
39189;DHT22;24915;50.858;4.376;2023-07-29T09:26:08;22.90;99.90
39189;DHT22;24915;50.858;4.376;2023-07-29T09:28:38;22.70;99.90
39189;DHT22;24915;50.858;4.376;2023-07-29T09:31:04;22.50;99.90
39189;DHT22;24915;50.858;4.376;2023-07-29T09:33:34;22.30;99.90
39189;DHT22;24915;50.858;4.376;2023-07-29T09:36:08;22.30;99.90
39189;DHT22;24915;50.858;4.376;2023-07-29T09:38:34;22.40;99.90
39189;DHT22;24915;50.858;4.376;2023-07-29T09:41:01;22.40;99.90
39189;DHT22;24915;50.858;4.376;2023-07-29T09:43:31;22.30;99.90
39189;DHT22;24915;50.858;4.376;2023-07-29T09:46:05;22.10;99.90
39189;DHT22;24915;50.858;4.376;2023-07-29T09:48:36;22.00;99.90
39189;DHT22;24915;50.858;4.376;2023-07-29T09:51:12;21.90;99.90
39189;DHT22;24915;50.858;4.376;2023-07-29T09:53:43;21.90;99.90
39189;DHT22;24915;50.858;4.376;2023-07-29T09:56:09;21.90;99.90
39189;DHT22;24915;50.858;4.376;2023-07-29T09:58:35;22.10;99.90
39189;DHT22;24915;50.858;4.376;2023-07-29T10:01:01;22.10;99.90
39189;DHT22;24915;50.858;4.376;2023-07-29T10:03:27;22.40;99.90
39189;DHT22;24915;50.858;4.376;2023-07-29T10:05:53;22.80;99.90
39189;DHT22;24915;50.858;4.376;2023-07-29T10:08:20;23.40;99.90
39189;DHT22;24915;50.858;4.376;2023-07-29T10:10:50;23.90;99.90
39189;DHT22;24915;50.858;4.376;2023-07-29T10:13:16;24.10;99.90
39189;DHT22;24915;50.858;4.376;2023-07-29T10:15:42;24.20;99.90
39189;DHT22;24915;50.858;4.376;2023-07-29T10:18:09;24.30;99.90
39189;DHT22;24915;50.858;4.376;2023-07-29T10:20:35;24.70;99.90
39189;DHT22;24915;50.858;4.376;2023-07-29T10:23:03;24.90;99.90
39189;DHT22;24915;50.858;4.376;2023-07-29T10:25:38;25.00;99.90
39189;DHT22;24915;50.858;4.376;2023-07-29T10:28:08;24.90;99.90
39189;DHT22;24915;50.858;4.376;2023-07-29T10:30:34;24.60;99.90
39189;DHT22;24915;50.858;4.376;2023-07-29T10:33:04;24.20;99.90
39189;DHT22;24915;50.858;4.376;2023-07-29T10:35:31;23.80;99.90
39189;DHT22;24915;50.858;4.376;2023-07-29T10:37:59;23.30;99.90
39189;DHT22;24915;50.858;4.376;2023-07-29T10:40:25;23.00;99.90
39189;DHT22;24915;50.858;4.376;2023-07-29T10:43:02;22.40;99.90
39189;DHT22;24915;50.858;4.376;2023-07-29T10:45:38;21.90;99.90
39189;DHT22;24915;50.858;4.376;2023-07-29T10:50:34;21.40;99.90
39189;DHT22;24915;50.858;4.376;2023-07-29T10:52:59;21.20;99.90
39189;DHT22;24915;50.858;4.376;2023-07-29T10:55:32;21.20;99.90
39189;DHT22;24915;50.858;4.376;2023-07-29T10:58:08;21.10;99.90
39189;DHT22;24915;50.858;4.376;2023-07-29T11:00:34;21.10;99.90
39189;DHT22;24915;50.858;4.376;2023-07-29T11:03:02;21.20;99.90
39189;DHT22;24915;50.858;4.376;2023-07-29T11:05:42;21.20;99.90
39189;DHT22;24915;50.858;4.376;2023-07-29T11:08:27;21.30;99.90
39189;DHT22;24915;50.858;4.376;2023-07-29T11:11:07;21.20;99.90
39189;DHT22;24915;50.858;4.376;2023-07-29T11:13:37;21.10;99.90
39189;DHT22;24915;50.858;4.376;2023-07-29T11:16:03;21.10;99.90
39189;DHT22;24915;50.858;4.376;2023-07-29T11:18:34;20.90;99.90
39189;DHT22;24915;50.858;4.376;2023-07-29T11:21:00;20.90;99.90
39189;DHT22;24915;50.858;4.376;2023-07-29T11:23:34;20.70;99.90
39189;DHT22;24915;50.858;4.376;2023-07-29T11:26:00;20.60;99.90
39189;DHT22;24915;50.858;4.376;2023-07-29T11:28:27;20.50;99.90
39189;DHT22;24915;50.858;4.376;2023-07-29T11:30:56;20.50;99.90
39189;DHT22;24915;50.858;4.376;2023-07-29T11:33:25;20.60;99.90
39189;DHT22;24915;50.858;4.376;2023-07-29T11:35:52;20.60;99.90
39189;DHT22;24915;50.858;4.376;2023-07-29T11:38:19;20.80;99.90
39189;DHT22;24915;50.858;4.376;2023-07-29T11:41:01;21.00;99.90
39189;DHT22;24915;50.858;4.376;2023-07-29T11:43:28;21.40;99.90
39189;DHT22;24915;50.858;4.376;2023-07-29T11:45:54;21.70;99.90
39189;DHT22;24915;50.858;4.376;2023-07-29T11:48:27;22.10;99.90
39189;DHT22;24915;50.858;4.376;2023-07-29T11:50:54;22.50;99.90
39189;DHT22;24915;50.858;4.376;2023-07-29T11:53:20;22.90;99.90
39189;DHT22;24915;50.858;4.376;2023-07-29T11:55:51;23.30;99.90
39189;DHT22;24915;50.858;4.376;2023-07-29T11:58:17;23.70;99.90
39189;DHT22;24915;50.858;4.376;2023-07-29T12:00:43;24.00;99.90
39189;DHT22;24915;50.858;4.376;2023-07-29T12:03:10;24.10;99.90
39189;DHT22;24915;50.858;4.376;2023-07-29T12:05:37;24.20;99.90
39189;DHT22;24915;50.858;4.376;2023-07-29T12:08:03;23.80;99.90
39189;DHT22;24915;50.858;4.376;2023-07-29T12:10:29;23.30;99.90
39189;DHT22;24915;50.858;4.376;2023-07-29T12:12:55;23.00;99.90
39189;DHT22;24915;50.858;4.376;2023-07-29T12:15:28;22.60;99.90
39189;DHT22;24915;50.858;4.376;2023-07-29T12:17:58;22.00;99.90
39189;DHT22;24915;50.858;4.376;2023-07-29T12:20:24;21.70;99.90
39189;DHT22;24915;50.858;4.376;2023-07-29T12:22:58;21.60;99.90
39189;DHT22;24915;50.858;4.376;2023-07-29T12:25:26;21.60;99.90
39189;DHT22;24915;50.858;4.376;2023-07-29T12:27:51;21.80;99.90
39189;DHT22;24915;50.858;4.376;2023-07-29T12:30:21;21.90;99.90
39189;DHT22;24915;50.858;4.376;2023-07-29T12:32:47;21.90;99.90
39189;DHT22;24915;50.858;4.376;2023-07-29T12:35:13;22.10;99.90
39189;DHT22;24915;50.858;4.376;2023-07-29T12:37:39;22.20;99.90
39189;DHT22;24915;50.858;4.376;2023-07-29T12:40:20;22.40;99.90
39189;DHT22;24915;50.858;4.376;2023-07-29T12:42:47;22.60;99.90
39189;DHT22;24915;50.858;4.376;2023-07-29T12:45:15;22.60;99.90
39189;DHT22;24915;50.858;4.376;2023-07-29T12:47:41;22.70;99.90
39189;DHT22;24915;50.858;4.376;2023-07-29T12:50:07;22.70;99.90
39189;DHT22;24915;50.858;4.376;2023-07-29T12:52:32;22.90;99.90
39189;DHT22;24915;50.858;4.376;2023-07-29T12:54:58;23.30;99.90
39189;DHT22;24915;50.858;4.376;2023-07-29T12:57:23;23.60;99.90
39189;DHT22;24915;50.858;4.376;2023-07-29T12:59:49;23.80;99.90
39189;DHT22;24915;50.858;4.376;2023-07-29T13:02:15;23.90;99.90
39189;DHT22;24915;50.858;4.376;2023-07-29T13:04:40;23.80;99.90
39189;DHT22;24915;50.858;4.376;2023-07-29T13:07:06;24.10;99.90
39189;DHT22;24915;50.858;4.376;2023-07-29T13:09:32;24.70;99.90
39189;DHT22;24915;50.858;4.376;2023-07-29T13:11:58;25.00;99.90
39189;DHT22;24915;50.858;4.376;2023-07-29T13:14:23;25.00;99.90
39189;DHT22;24915;50.858;4.376;2023-07-29T13:16:51;25.10;99.90
39189;DHT22;24915;50.858;4.376;2023-07-29T13:19:18;25.20;99.90
39189;DHT22;24915;50.858;4.376;2023-07-29T13:21:44;24.80;99.90
39189;DHT22;24915;50.858;4.376;2023-07-29T13:24:09;24.50;99.90
39189;DHT22;24915;50.858;4.376;2023-07-29T13:26:35;24.30;99.90
39189;DHT22;24915;50.858;4.376;2023-07-29T13:29:01;24.20;99.90
39189;DHT22;24915;50.858;4.376;2023-07-29T13:31:26;23.90;99.90
39189;DHT22;24915;50.858;4.376;2023-07-29T13:33:52;23.80;99.90
39189;DHT22;24915;50.858;4.376;2023-07-29T13:36:18;24.00;99.90
39189;DHT22;24915;50.858;4.376;2023-07-29T13:38:43;24.40;99.90
39189;DHT22;24915;50.858;4.376;2023-07-29T13:41:09;25.10;99.90
39189;DHT22;24915;50.858;4.376;2023-07-29T13:43:34;25.40;99.90
39189;DHT22;24915;50.858;4.376;2023-07-29T13:46:00;25.20;99.90
39189;DHT22;24915;50.858;4.376;2023-07-29T13:48:26;25.10;99.90
39189;DHT22;24915;50.858;4.376;2023-07-29T13:50:51;24.80;99.90
39189;DHT22;24915;50.858;4.376;2023-07-29T13:53:17;24.60;99.90
39189;DHT22;24915;50.858;4.376;2023-07-29T13:55:43;24.20;99.90
39189;DHT22;24915;50.858;4.376;2023-07-29T13:58:08;24.00;99.90
39189;DHT22;24915;50.858;4.376;2023-07-29T14:00:34;23.80;99.90
39189;DHT22;24915;50.858;4.376;2023-07-29T14:03:00;23.60;99.90
39189;DHT22;24915;50.858;4.376;2023-07-29T14:05:25;23.50;99.90
39189;DHT22;24915;50.858;4.376;2023-07-29T14:07:51;23.40;99.90
39189;DHT22;24915;50.858;4.376;2023-07-29T14:10:17;23.30;99.90
39189;DHT22;24915;50.858;4.376;2023-07-29T14:12:42;23.30;99.90
39189;DHT22;24915;50.858;4.376;2023-07-29T14:15:08;23.40;99.90
39189;DHT22;24915;50.858;4.376;2023-07-29T14:17:34;23.80;99.90
39189;DHT22;24915;50.858;4.376;2023-07-29T14:19:59;24.30;99.90
39189;DHT22;24915;50.858;4.376;2023-07-29T14:22:25;24.50;99.90
39189;DHT22;24915;50.858;4.376;2023-07-29T14:24:51;24.80;99.90
39189;DHT22;24915;50.858;4.376;2023-07-29T14:27:16;25.10;99.90
39189;DHT22;24915;50.858;4.376;2023-07-29T14:29:42;25.00;99.90
39189;DHT22;24915;50.858;4.376;2023-07-29T14:32:08;24.90;99.90
39189;DHT22;24915;50.858;4.376;2023-07-29T14:34:34;25.10;99.90
39189;DHT22;24915;50.858;4.376;2023-07-29T14:37:00;25.10;99.90
39189;DHT22;24915;50.858;4.376;2023-07-29T14:39:25;24.80;99.90
39189;DHT22;24915;50.858;4.376;2023-07-29T14:41:51;25.00;99.90
39189;DHT22;24915;50.858;4.376;2023-07-29T14:44:16;25.10;99.90
39189;DHT22;24915;50.858;4.376;2023-07-29T14:46:42;25.20;99.90
39189;DHT22;24915;50.858;4.376;2023-07-29T14:49:08;24.90;99.90
39189;DHT22;24915;50.858;4.376;2023-07-29T14:51:34;24.50;99.90
39189;DHT22;24915;50.858;4.376;2023-07-29T14:54:00;24.20;99.90
39189;DHT22;24915;50.858;4.376;2023-07-29T14:56:25;24.10;99.90
39189;DHT22;24915;50.858;4.376;2023-07-29T14:58:51;24.10;99.90
39189;DHT22;24915;50.858;4.376;2023-07-29T15:01:16;24.10;99.90
39189;DHT22;24915;50.858;4.376;2023-07-29T15:03:42;24.10;99.90
39189;DHT22;24915;50.858;4.376;2023-07-29T15:06:08;24.20;99.90
39189;DHT22;24915;50.858;4.376;2023-07-29T15:08:33;24.20;99.90
39189;DHT22;24915;50.858;4.376;2023-07-29T15:11:00;24.40;99.90
39189;DHT22;24915;50.858;4.376;2023-07-29T15:13:25;24.60;99.90
39189;DHT22;24915;50.858;4.376;2023-07-29T15:15:51;24.70;99.90
39189;DHT22;24915;50.858;4.376;2023-07-29T15:18:17;24.70;99.90
39189;DHT22;24915;50.858;4.376;2023-07-29T15:20:44;24.70;99.90
39189;DHT22;24915;50.858;4.376;2023-07-29T15:23:09;24.50;99.90
39189;DHT22;24915;50.858;4.376;2023-07-29T15:25:35;24.30;99.90
39189;DHT22;24915;50.858;4.376;2023-07-29T15:28:00;24.10;99.90
39189;DHT22;24915;50.858;4.376;2023-07-29T15:30:27;24.00;99.90
39189;DHT22;24915;50.858;4.376;2023-07-29T15:32:53;23.70;99.90